createdAt,value
2018-02-27T00:00:38.243Z,0
2018-02-27T00:01:38.257Z,0
2018-02-27T00:02:38.175Z,0
2018-02-27T00:03:38.130Z,0
2018-02-27T00:04:37.846Z,0
2018-02-27T00:05:38.068Z,0
2018-02-27T00:06:37.771Z,0
2018-02-27T00:07:37.733Z,0
2018-02-27T00:08:37.951Z,0
2018-02-27T00:09:37.909Z,0
2018-02-27T00:10:37.440Z,0
2018-02-27T00:11:37.816Z,0
2018-02-27T00:12:37.794Z,0
2018-02-27T00:13:37.686Z,0
2018-02-27T00:14:37.720Z,0
2018-02-27T00:15:37.694Z,0
2018-02-27T00:16:37.413Z,0
2018-02-27T00:17:37.356Z,0
2018-02-27T00:18:37.571Z,0
2018-02-27T00:19:37.288Z,0
2018-02-27T00:20:37.494Z,0
2018-02-27T00:21:36.712Z,0
2018-02-27T00:22:37.179Z,0
2018-02-27T00:23:37.387Z,0
2018-02-27T00:24:37.094Z,0
2018-02-27T00:25:37.306Z,0
2018-02-27T00:26:37.275Z,0
2018-02-27T00:27:36.979Z,0
2018-02-27T00:28:36.695Z,0
2018-02-27T00:29:37.169Z,0
2018-02-27T00:30:36.865Z,0
2018-02-27T00:31:36.831Z,0
2018-02-27T00:32:37.041Z,0
2018-02-27T00:33:37.001Z,0
2018-02-27T00:34:36.961Z,0
2018-02-27T00:35:36.934Z,0
2018-02-27T00:36:36.395Z,0
2018-02-27T00:37:36.602Z,0
2018-02-27T00:38:36.816Z,0
2018-02-27T00:39:36.528Z,0
2018-02-27T00:40:36.741Z,0
2018-02-27T00:41:36.205Z,0
2018-02-27T00:42:36.419Z,0
2018-02-27T00:43:36.628Z,0
2018-02-27T00:44:36.341Z,0
2018-02-27T00:45:36.310Z,0
2018-02-27T00:46:36.517Z,0
2018-02-27T00:47:36.473Z,0
2018-02-27T00:48:36.438Z,0
2018-02-27T00:49:36.407Z,0
2018-02-27T00:50:36.115Z,0
2018-02-27T00:51:36.074Z,0
2018-02-27T00:52:36.290Z,0
2018-02-27T00:53:36.006Z,0
2018-02-27T00:54:35.958Z,0
2018-02-27T00:55:35.680Z,0
2018-02-27T00:56:36.156Z,0
2018-02-27T00:57:36.095Z,0
2018-02-27T00:58:36.061Z,0
2018-02-27T00:59:36.024Z,0
2018-02-27T01:00:35.991Z,0
2018-02-27T01:01:35.947Z,0
2018-02-27T01:02:35.909Z,0
2018-02-27T01:03:35.866Z,0
2018-02-27T01:04:35.592Z,0
2018-02-27T01:05:35.798Z,0
2018-02-27T01:06:35.769Z,0
2018-02-27T01:07:35.223Z,0
2018-02-27T01:08:35.681Z,0
2018-02-27T01:09:35.640Z,0
2018-02-27T01:10:35.602Z,0
2018-02-27T01:11:35.569Z,0
2018-02-27T01:12:35.028Z,0
2018-02-27T01:13:35.250Z,0
2018-02-27T01:14:35.458Z,0
2018-02-27T01:15:35.417Z,0
2018-02-27T01:16:34.877Z,0
2018-02-27T01:17:35.338Z,0
2018-02-27T01:18:35.306Z,0
2018-02-27T01:19:35.256Z,0
2018-02-27T01:20:34.725Z,0
2018-02-27T01:21:35.186Z,0
2018-02-27T01:22:35.177Z,0
2018-02-27T01:23:35.118Z,0
2018-02-27T01:24:35.071Z,0
2018-02-27T01:25:34.781Z,0
2018-02-27T01:26:34.996Z,0
2018-02-27T01:27:34.958Z,0
2018-02-27T01:28:34.821Z,0
2018-02-27T01:29:34.908Z,0
2018-02-27T01:30:34.594Z,0
2018-02-27T01:31:34.308Z,0
2018-02-27T01:32:34.780Z,0
2018-02-27T01:33:34.731Z,0
2018-02-27T01:34:34.443Z,0
2018-02-27T01:35:34.656Z,0
2018-02-27T01:36:34.612Z,0
2018-02-27T01:37:34.326Z,0
2018-02-27T01:38:34.296Z,0
2018-02-27T01:39:34.504Z,0
2018-02-27T01:40:34.216Z,0
2018-02-27T01:41:34.183Z,0
2018-02-27T01:42:34.386Z,0
2018-02-27T01:43:34.099Z,0
2018-02-27T01:44:34.312Z,0
2018-02-27T01:45:34.025Z,0
2018-02-27T01:46:34.236Z,0
2018-02-27T01:47:34.251Z,0
2018-02-27T01:48:34.161Z,0
2018-02-27T01:49:34.122Z,0
2018-02-27T01:50:33.856Z,0
2018-02-27T01:51:33.800Z,0
2018-02-27T01:52:33.521Z,0
2018-02-27T01:53:33.972Z,0
2018-02-27T01:54:33.686Z,0
2018-02-27T01:55:33.893Z,0
2018-02-27T01:56:33.867Z,0
2018-02-27T01:57:33.816Z,0
2018-02-27T01:58:33.779Z,0
2018-02-27T01:59:33.495Z,0
2018-02-27T02:00:33.204Z,0
2018-02-27T02:01:33.417Z,0
2018-02-27T02:02:33.629Z,0
2018-02-27T02:03:33.654Z,0
2018-02-27T02:04:33.308Z,0
2018-02-27T02:05:33.268Z,0
2018-02-27T02:06:33.471Z,0
2018-02-27T02:07:33.234Z,0
2018-02-27T02:08:33.409Z,0
2018-02-27T02:09:33.111Z,0
2018-02-27T02:10:33.320Z,0
2018-02-27T02:11:33.034Z,0
2018-02-27T02:12:33.000Z,0
2018-02-27T02:13:32.954Z,0
2018-02-27T02:14:32.920Z,0
2018-02-27T02:15:33.132Z,0
2018-02-27T02:16:32.844Z,0
2018-02-27T02:17:33.055Z,0
2018-02-27T02:18:33.012Z,0
2018-02-27T02:19:32.480Z,0
2018-02-27T02:20:32.689Z,0
2018-02-27T02:21:32.900Z,0
2018-02-27T02:22:32.613Z,0
2018-02-27T02:23:32.573Z,0
2018-02-27T02:24:32.788Z,0
2018-02-27T02:25:32.746Z,0
2018-02-27T02:26:32.707Z,0
2018-02-27T02:27:32.677Z,0
2018-02-27T02:28:32.635Z,0
2018-02-27T02:29:32.590Z,0
2018-02-27T02:30:32.580Z,0
2018-02-27T02:31:32.268Z,0
2018-02-27T02:32:32.497Z,0
2018-02-27T02:33:32.201Z,0
2018-02-27T02:34:32.440Z,0
2018-02-27T02:35:32.363Z,0
2018-02-27T02:36:32.342Z,0
2018-02-27T02:37:32.297Z,0
2018-02-27T02:38:31.999Z,0
2018-02-27T02:39:31.966Z,0
2018-02-27T02:40:32.172Z,0
2018-02-27T02:41:32.131Z,0
2018-02-27T02:42:32.092Z,0
2018-02-27T02:43:32.057Z,0
2018-02-27T02:44:31.767Z,0
2018-02-27T02:45:31.729Z,0
2018-02-27T02:46:31.942Z,0
2018-02-27T02:47:31.899Z,0
2018-02-27T02:48:31.869Z,0
2018-02-27T02:49:31.576Z,0
2018-02-27T02:50:31.793Z,0
2018-02-27T02:51:31.002Z,0
2018-02-27T02:52:31.714Z,0
2018-02-27T02:53:31.172Z,0
2018-02-27T02:54:31.636Z,0
2018-02-27T02:55:31.592Z,0
2018-02-27T02:56:31.558Z,0
2018-02-27T02:57:31.266Z,0
2018-02-27T02:58:31.240Z,0
2018-02-27T02:59:30.944Z,0
2018-02-27T03:00:42.833Z,0
2018-02-27T03:01:31.361Z,0
2018-02-27T03:02:31.323Z,0
2018-02-27T03:03:31.036Z,0
2018-02-27T03:04:30.997Z,0
2018-02-27T03:05:31.206Z,0
2018-02-27T03:06:31.168Z,0
2018-02-27T03:07:31.127Z,0
2018-02-27T03:08:31.104Z,0
2018-02-27T03:09:31.053Z,0
2018-02-27T03:10:30.768Z,0
2018-02-27T03:11:30.991Z,0
2018-02-27T03:12:31.345Z,0
2018-02-27T03:13:30.901Z,0
2018-02-27T03:14:31.293Z,0
2018-02-27T03:15:30.573Z,0
2018-02-27T03:16:30.785Z,0
2018-02-27T03:17:30.508Z,0
2018-02-27T03:18:30.705Z,0
2018-02-27T03:19:30.668Z,0
2018-02-27T03:20:30.638Z,0
2018-02-27T03:21:30.685Z,0
2018-02-27T03:22:30.552Z,0
2018-02-27T03:23:30.514Z,0
2018-02-27T03:24:30.224Z,0
2018-02-27T03:25:30.186Z,0
2018-02-27T03:26:30.401Z,0
2018-02-27T03:27:30.361Z,0
2018-02-27T03:28:30.322Z,0
2018-02-27T03:29:30.277Z,0
2018-02-27T03:30:30.255Z,0
2018-02-27T03:31:30.216Z,0
2018-02-27T03:32:30.164Z,0
2018-02-27T03:33:30.137Z,0
2018-02-27T03:34:30.086Z,0
2018-02-27T03:35:30.048Z,0
2018-02-27T03:36:30.014Z,0
2018-02-27T03:37:29.981Z,0
2018-02-27T03:38:29.932Z,0
2018-02-27T03:39:29.906Z,0
2018-02-27T03:40:29.858Z,0
2018-02-27T03:41:29.816Z,0
2018-02-27T03:42:29.786Z,0
2018-02-27T03:43:29.754Z,0
2018-02-27T03:44:29.706Z,0
2018-02-27T03:45:29.660Z,0
2018-02-27T03:46:29.623Z,0
2018-02-27T03:47:29.332Z,0
2018-02-27T03:48:29.311Z,0
2018-02-27T03:49:29.504Z,0
2018-02-27T03:50:29.476Z,0
2018-02-27T03:51:29.181Z,0
2018-02-27T03:52:29.389Z,0
2018-02-27T03:53:29.114Z,0
2018-02-27T03:54:29.319Z,0
2018-02-27T03:55:29.274Z,0
2018-02-27T03:56:28.993Z,0
2018-02-27T03:57:29.199Z,0
2018-02-27T03:58:28.909Z,0
2018-02-27T03:59:29.121Z,0
2018-02-27T04:00:29.078Z,0
2018-02-27T04:01:29.084Z,0
2018-02-27T04:02:28.757Z,0
2018-02-27T04:03:28.966Z,0
2018-02-27T04:04:28.923Z,0
2018-02-27T04:05:28.884Z,0
2018-02-27T04:06:28.844Z,0
2018-02-27T04:07:28.806Z,0
2018-02-27T04:08:28.522Z,0
2018-02-27T04:09:28.483Z,0
2018-02-27T04:10:28.442Z,0
2018-02-27T04:11:28.653Z,0
2018-02-27T04:12:28.615Z,0
2018-02-27T04:13:28.606Z,0
2018-02-27T04:14:28.538Z,0
2018-02-27T04:15:28.498Z,0
2018-02-27T04:16:28.208Z,0
2018-02-27T04:17:28.418Z,0
2018-02-27T04:18:28.428Z,0
2018-02-27T04:19:28.093Z,0
2018-02-27T04:20:28.056Z,0
2018-02-27T04:21:28.263Z,0
2018-02-27T04:22:28.224Z,0
2018-02-27T04:23:28.188Z,0
2018-02-27T04:24:28.149Z,0
2018-02-27T04:25:28.116Z,0
2018-02-27T04:26:28.072Z,0
2018-02-27T04:27:28.036Z,0
2018-02-27T04:28:28.010Z,0
2018-02-27T04:29:27.460Z,0
2018-02-27T04:30:27.664Z,0
2018-02-27T04:31:27.878Z,0
2018-02-27T04:32:27.838Z,0
2018-02-27T04:33:27.795Z,0
2018-02-27T04:34:27.514Z,0
2018-02-27T04:35:27.469Z,0
2018-02-27T04:36:27.430Z,0
2018-02-27T04:37:27.645Z,0
2018-02-27T04:38:27.352Z,0
2018-02-27T04:39:27.322Z,0
2018-02-27T04:40:27.275Z,0
2018-02-27T04:41:27.483Z,0
2018-02-27T04:42:27.442Z,0
2018-02-27T04:43:27.157Z,0
2018-02-27T04:44:27.368Z,0
2018-02-27T04:45:27.336Z,0
2018-02-27T04:46:27.286Z,0
2018-02-27T04:47:27.254Z,0
2018-02-27T04:48:27.219Z,0
2018-02-27T04:49:27.175Z,0
2018-02-27T04:50:27.129Z,0
2018-02-27T04:51:26.845Z,0
2018-02-27T04:52:27.059Z,0
2018-02-27T04:53:26.859Z,0
2018-02-27T04:54:26.737Z,0
2018-02-27T04:55:26.932Z,0
2018-02-27T04:56:26.903Z,0
2018-02-27T04:57:26.608Z,0
2018-02-27T04:58:26.873Z,0
2018-02-27T04:59:26.534Z,0
2018-02-27T05:00:26.751Z,0
2018-02-27T05:01:26.705Z,0
2018-02-27T05:02:26.667Z,0
2018-02-27T05:03:26.375Z,0
2018-02-27T05:04:26.355Z,0
2018-02-27T05:05:26.545Z,0
2018-02-27T05:06:26.507Z,0
2018-02-27T05:07:26.469Z,0
2018-02-27T05:08:26.425Z,0
2018-02-27T05:09:26.389Z,0
2018-02-27T05:10:26.348Z,0
2018-02-27T05:11:25.833Z,0
2018-02-27T05:12:26.022Z,0
2018-02-27T05:13:26.234Z,0
2018-02-27T05:14:26.206Z,0
2018-02-27T05:15:26.374Z,0
2018-02-27T05:16:25.653Z,0
2018-02-27T05:17:28.100Z,0
2018-02-27T05:18:26.040Z,0
2018-02-27T05:19:25.498Z,0
2018-02-27T05:20:25.968Z,0
2018-02-27T05:21:25.672Z,0
2018-02-27T05:22:25.631Z,0
2018-02-27T05:23:25.841Z,0
2018-02-27T05:24:25.803Z,0
2018-02-27T05:25:25.778Z,0
2018-02-27T05:26:25.723Z,0
2018-02-27T05:27:25.686Z,0
2018-02-27T05:28:25.644Z,0
2018-02-27T05:29:25.648Z,0
2018-02-27T05:30:25.569Z,0
2018-02-27T05:31:25.529Z,0
2018-02-27T05:32:25.240Z,0
2018-02-27T05:33:24.957Z,0
2018-02-27T05:34:25.431Z,0
2018-02-27T05:35:25.126Z,0
2018-02-27T05:36:25.324Z,0
2018-02-27T05:37:25.295Z,0
2018-02-27T05:38:25.008Z,0
2018-02-27T05:39:24.963Z,0
2018-02-27T05:40:25.170Z,0
2018-02-27T05:41:25.134Z,0
2018-02-27T05:42:25.098Z,0
2018-02-27T05:43:24.807Z,0
2018-02-27T05:44:25.014Z,0
2018-02-27T05:45:25.362Z,0
2018-02-27T05:46:24.847Z,0
2018-02-27T05:47:24.901Z,4
2018-02-27T05:48:24.859Z,4
2018-02-27T05:49:24.175Z,0
2018-02-27T05:50:24.534Z,4
2018-02-27T05:51:24.494Z,4
2018-02-27T05:52:24.462Z,4
2018-02-27T05:53:24.664Z,8
2018-02-27T05:54:24.645Z,8
2018-02-27T05:55:24.581Z,8
2018-02-27T05:56:24.297Z,8
2018-02-27T05:57:24.510Z,12
2018-02-27T05:58:24.471Z,12
2018-02-27T05:59:24.481Z,20
2018-02-27T06:00:24.390Z,20
2018-02-27T06:01:24.115Z,24
2018-02-27T06:02:24.312Z,28
2018-02-27T06:03:24.277Z,36
2018-02-27T06:04:24.026Z,40
2018-02-27T06:05:23.942Z,48
2018-02-27T06:06:24.154Z,56
2018-02-27T06:07:24.115Z,64
2018-02-27T06:08:23.826Z,76
2018-02-27T06:09:23.787Z,88
2018-02-27T06:10:23.749Z,100
2018-02-27T06:11:23.588Z,116
2018-02-27T06:12:23.917Z,132
2018-02-27T06:13:23.634Z,152
2018-02-27T06:14:23.588Z,172
2018-02-27T06:15:23.553Z,192
2018-02-27T06:16:23.763Z,212
2018-02-27T06:17:23.479Z,240
2018-02-27T06:18:23.677Z,268
2018-02-27T06:19:23.656Z,300
2018-02-27T06:20:24.852Z,328
2018-02-27T06:21:24.783Z,364
2018-02-27T06:22:25.801Z,400
2018-02-27T06:23:25.960Z,436
2018-02-27T06:24:22.983Z,480
2018-02-27T06:25:23.408Z,520
2018-02-27T06:26:23.121Z,564
2018-02-27T06:27:23.344Z,612
2018-02-27T06:28:23.293Z,660
2018-02-27T06:29:23.258Z,704
2018-02-27T06:30:23.212Z,756
2018-02-27T06:31:23.308Z,800
2018-02-27T06:32:23.328Z,856
2018-02-27T06:33:23.098Z,908
2018-02-27T06:34:23.054Z,964
2018-02-27T06:35:23.117Z,1024
2018-02-27T06:36:22.977Z,1080
2018-02-27T06:37:22.786Z,1144
2018-02-27T06:38:23.062Z,1208
2018-02-27T06:39:22.609Z,1272
2018-02-27T06:40:22.816Z,1348
2018-02-27T06:41:22.786Z,1440
2018-02-27T06:42:22.750Z,1532
2018-02-27T06:43:22.701Z,1604
2018-02-27T06:44:22.664Z,1668
2018-02-27T06:45:22.380Z,1720
2018-02-27T06:46:22.586Z,1788
2018-02-27T06:47:22.365Z,1856
2018-02-27T06:48:22.513Z,1916
2018-02-27T06:49:22.464Z,1960
2018-02-27T06:50:22.427Z,1984
2018-02-27T06:51:22.389Z,2032
2018-02-27T06:52:22.102Z,2072
2018-02-27T06:53:22.309Z,2112
2018-02-27T06:54:22.274Z,2164
2018-02-27T06:55:22.352Z,2224
2018-02-27T06:56:21.944Z,2284
2018-02-27T06:57:22.158Z,2344
2018-02-27T06:58:22.114Z,2396
2018-02-27T06:59:22.081Z,2456
2018-02-27T07:00:22.063Z,2512
2018-02-27T07:01:21.999Z,2584
2018-02-27T07:02:21.956Z,2636
2018-02-27T07:03:21.673Z,2716
2018-02-27T07:04:21.881Z,2800
2018-02-27T07:05:21.842Z,2912
2018-02-27T07:06:21.922Z,3032
2018-02-27T07:07:21.767Z,3112
2018-02-27T07:08:21.726Z,3152
2018-02-27T07:09:21.688Z,3104
2018-02-27T07:10:21.810Z,3068
2018-02-27T07:11:21.370Z,3100
2018-02-27T07:12:21.324Z,3148
2018-02-27T07:13:21.543Z,3216
2018-02-27T07:14:21.251Z,3260
2018-02-27T07:15:21.209Z,3300
2018-02-27T07:16:21.416Z,3328
2018-02-27T07:17:21.380Z,3408
2018-02-27T07:18:21.337Z,3472
2018-02-27T07:19:21.054Z,3556
2018-02-27T07:20:21.023Z,3672
2018-02-27T07:21:21.231Z,3796
2018-02-27T07:22:20.938Z,3960
2018-02-27T07:23:20.899Z,4156
2018-02-27T07:24:20.859Z,4472
2018-02-27T07:25:21.068Z,4804
2018-02-27T07:26:21.037Z,4956
2018-02-27T07:27:20.754Z,4792
2018-02-27T07:28:20.703Z,4624
2018-02-27T07:29:20.919Z,4584
2018-02-27T07:30:20.627Z,4592
2018-02-27T07:31:20.841Z,4600
2018-02-27T07:32:20.802Z,4496
2018-02-27T07:33:20.266Z,4312
2018-02-27T07:34:20.727Z,4168
2018-02-27T07:35:20.775Z,4008
2018-02-27T07:36:20.644Z,3904
2018-02-27T07:37:20.357Z,3944
2018-02-27T07:38:20.579Z,4008
2018-02-27T07:39:20.532Z,4000
2018-02-27T07:40:20.243Z,4052
2018-02-27T07:41:20.458Z,4188
2018-02-27T07:42:20.420Z,4160
2018-02-27T07:43:19.878Z,4184
2018-02-27T07:44:20.096Z,4248
2018-02-27T07:45:20.353Z,4260
2018-02-27T07:46:19.764Z,4276
2018-02-27T07:47:20.240Z,4300
2018-02-27T07:48:19.693Z,4340
2018-02-27T07:49:19.900Z,4364
2018-02-27T07:50:20.106Z,4404
2018-02-27T07:51:19.827Z,4420
2018-02-27T07:52:20.033Z,4456
2018-02-27T07:53:19.502Z,4528
2018-02-27T07:54:19.709Z,4576
2018-02-27T07:55:19.920Z,4592
2018-02-27T07:56:19.890Z,4608
2018-02-27T07:57:19.848Z,4672
2018-02-27T07:58:19.912Z,4744
2018-02-27T07:59:20.270Z,4844
2018-02-27T08:00:19.894Z,4968
2018-02-27T08:01:20.434Z,5036
2018-02-27T08:02:19.653Z,5180
2018-02-27T08:03:19.367Z,5440
2018-02-27T08:04:19.775Z,5784
2018-02-27T08:05:20.112Z,6192
2018-02-27T08:06:19.447Z,6340
2018-02-27T08:07:19.656Z,6868
2018-02-27T08:08:19.447Z,7728
2018-02-27T08:09:19.396Z,8756
2018-02-27T08:10:19.364Z,9548
2018-02-27T08:11:19.318Z,9780
2018-02-27T08:12:19.375Z,9680
2018-02-27T08:13:18.742Z,9468
2018-02-27T08:14:18.705Z,9428
2018-02-27T08:15:19.168Z,9480
2018-02-27T08:16:19.250Z,9552
2018-02-27T08:17:19.091Z,9644
2018-02-27T08:18:19.057Z,9408
2018-02-27T08:19:19.016Z,8736
2018-02-27T08:20:19.026Z,7836
2018-02-27T08:21:18.696Z,6676
2018-02-27T08:22:18.658Z,6036
2018-02-27T08:23:18.872Z,5856
2018-02-27T08:24:18.834Z,5852
2018-02-27T08:25:18.551Z,5788
2018-02-27T08:26:18.768Z,5452
2018-02-27T08:27:18.725Z,5276
2018-02-27T08:28:18.688Z,5288
2018-02-27T08:29:18.651Z,5324
2018-02-27T08:30:18.618Z,5344
2018-02-27T08:31:18.604Z,5264
2018-02-27T08:32:18.640Z,5192
2018-02-27T08:33:18.261Z,5232
2018-02-27T08:34:18.221Z,5320
2018-02-27T08:35:18.187Z,5340
2018-02-27T08:36:18.150Z,5384
2018-02-27T08:37:18.362Z,5428
2018-02-27T08:38:17.827Z,5460
2018-02-27T08:39:18.294Z,5488
2018-02-27T08:40:17.754Z,5464
2018-02-27T08:41:18.345Z,5404
2018-02-27T08:42:17.433Z,5372
2018-02-27T08:43:17.893Z,5392
2018-02-27T08:44:17.687Z,5448
2018-02-27T08:45:17.818Z,5500
2018-02-27T08:46:17.780Z,5484
2018-02-27T08:47:17.743Z,5396
2018-02-27T08:48:17.706Z,5368
2018-02-27T08:49:17.922Z,5444
2018-02-27T08:50:17.881Z,5588
2018-02-27T08:51:17.621Z,5648
2018-02-27T08:52:17.866Z,5700
2018-02-27T08:53:17.615Z,5692
2018-02-27T08:54:17.234Z,5688
2018-02-27T08:55:17.692Z,5724
2018-02-27T08:56:17.740Z,5852
2018-02-27T08:57:17.622Z,5648
2018-02-27T08:58:17.358Z,5580
2018-02-27T08:59:17.557Z,5560
2018-02-27T09:00:17.274Z,5592
2018-02-27T09:01:17.488Z,5620
2018-02-27T09:02:17.439Z,5648
2018-02-27T09:03:17.163Z,5632
2018-02-27T09:04:17.364Z,5664
2018-02-27T09:05:17.350Z,5672
2018-02-27T09:06:17.045Z,5632
2018-02-27T09:07:17.264Z,5628
2018-02-27T09:08:17.262Z,5680
2018-02-27T09:09:16.956Z,5828
2018-02-27T09:10:17.145Z,5904
2018-02-27T09:11:17.106Z,5940
2018-02-27T09:12:17.297Z,6016
2018-02-27T09:13:16.786Z,6224
2018-02-27T09:14:16.503Z,6348
2018-02-27T09:15:16.714Z,6808
2018-02-27T09:16:16.685Z,7564
2018-02-27T09:17:16.890Z,7816
2018-02-27T09:18:16.365Z,7916
2018-02-27T09:19:17.090Z,7660
2018-02-27T09:20:16.929Z,7260
2018-02-27T09:21:16.750Z,6884
2018-02-27T09:22:16.459Z,6372
2018-02-27T09:23:16.422Z,6000
2018-02-27T09:24:16.390Z,5816
2018-02-27T09:25:16.351Z,5776
2018-02-27T09:26:16.314Z,5752
2018-02-27T09:27:16.028Z,5752
2018-02-27T09:28:16.491Z,5804
2018-02-27T09:29:16.452Z,5960
2018-02-27T09:30:16.433Z,6104
2018-02-27T09:31:16.380Z,6244
2018-02-27T09:32:16.337Z,6308
2018-02-27T09:33:16.060Z,6008
2018-02-27T09:34:16.024Z,5852
2018-02-27T09:35:15.986Z,5820
2018-02-27T09:36:15.951Z,5788
2018-02-27T09:37:16.164Z,5764
2018-02-27T09:38:16.258Z,5804
2018-02-27T09:39:16.121Z,5796
2018-02-27T09:40:16.056Z,5816
2018-02-27T09:41:15.767Z,5840
2018-02-27T09:42:15.484Z,5872
2018-02-27T09:43:15.694Z,5888
2018-02-27T09:44:15.921Z,5872
2018-02-27T09:45:15.874Z,5868
2018-02-27T09:46:15.838Z,5888
2018-02-27T09:47:15.804Z,5856
2018-02-27T09:48:15.793Z,5848
2018-02-27T09:49:15.483Z,5872
2018-02-27T09:50:15.444Z,5920
2018-02-27T09:51:15.404Z,5992
2018-02-27T09:52:15.790Z,6036
2018-02-27T09:53:15.583Z,6064
2018-02-27T09:54:15.549Z,6056
2018-02-27T09:55:15.506Z,6020
2018-02-27T09:56:15.227Z,5996
2018-02-27T09:57:15.440Z,6004
2018-02-27T09:58:15.413Z,6020
2018-02-27T09:59:15.117Z,6032
2018-02-27T10:00:15.089Z,6040
2018-02-27T10:01:14.798Z,6080
2018-02-27T10:02:15.262Z,6120
2018-02-27T10:03:14.974Z,6132
2018-02-27T10:04:15.211Z,6140
2018-02-27T10:05:15.270Z,6124
2018-02-27T10:06:14.877Z,6136
2018-02-27T10:07:14.830Z,6160
2018-02-27T10:08:14.796Z,6208
2018-02-27T10:09:14.760Z,6228
2018-02-27T10:10:14.984Z,6284
2018-02-27T10:11:14.697Z,6260
2018-02-27T10:12:14.656Z,6412
2018-02-27T10:13:14.616Z,6380
2018-02-27T10:14:14.829Z,6324
2018-02-27T10:15:14.298Z,6448
2018-02-27T10:16:14.808Z,6508
2018-02-27T10:17:14.849Z,6428
2018-02-27T10:18:14.690Z,6408
2018-02-27T10:19:14.405Z,6384
2018-02-27T10:20:14.623Z,6368
2018-02-27T10:21:14.582Z,6320
2018-02-27T10:22:14.660Z,6352
2018-02-27T10:23:14.515Z,6376
2018-02-27T10:24:14.479Z,6404
2018-02-27T10:25:14.444Z,6436
2018-02-27T10:26:14.160Z,6504
2018-02-27T10:27:14.371Z,6540
2018-02-27T10:28:14.085Z,6416
2018-02-27T10:29:14.602Z,6416
2018-02-27T10:30:14.024Z,6464
2018-02-27T10:31:14.236Z,6452
2018-02-27T10:32:14.196Z,6468
2018-02-27T10:33:14.158Z,6500
2018-02-27T10:34:14.131Z,6480
2018-02-27T10:35:13.844Z,6516
2018-02-27T10:36:14.052Z,6548
2018-02-27T10:37:14.023Z,6536
2018-02-27T10:38:13.738Z,6564
2018-02-27T10:39:14.041Z,6664
2018-02-27T10:40:14.315Z,6832
2018-02-27T10:41:13.633Z,6944
2018-02-27T10:42:13.847Z,6764
2018-02-27T10:43:13.568Z,6756
2018-02-27T10:44:13.778Z,6728
2018-02-27T10:45:13.251Z,6696
2018-02-27T10:46:13.465Z,6660
2018-02-27T10:47:13.431Z,6652
2018-02-27T10:48:13.399Z,6652
2018-02-27T10:49:13.615Z,6716
2018-02-27T10:50:14.861Z,6760
2018-02-27T10:51:14.313Z,6768
2018-02-27T10:52:14.886Z,6704
2018-02-27T10:53:13.451Z,6672
2018-02-27T10:54:13.442Z,6628
2018-02-27T10:55:13.403Z,6640
2018-02-27T10:56:13.118Z,6604
2018-02-27T10:57:13.354Z,6536
2018-02-27T10:58:13.045Z,6488
2018-02-27T10:59:13.266Z,6488
2018-02-27T11:00:12.981Z,6512
2018-02-27T11:01:12.693Z,6448
2018-02-27T11:02:12.914Z,6392
2018-02-27T11:03:13.638Z,6440
2018-02-27T11:04:12.835Z,6492
2018-02-27T11:05:12.827Z,6580
2018-02-27T11:06:13.168Z,6584
2018-02-27T11:07:13.715Z,6560
2018-02-27T11:08:12.199Z,6216
2018-02-27T11:09:12.661Z,6564
2018-02-27T11:10:12.626Z,6624
2018-02-27T11:11:13.576Z,6676
2018-02-27T11:12:12.399Z,6796
2018-02-27T11:13:13.604Z,6880
2018-02-27T11:14:13.146Z,7000
2018-02-27T11:15:14.487Z,7208
2018-02-27T11:16:14.119Z,7536
2018-02-27T11:17:13.263Z,7520
2018-02-27T11:18:13.118Z,7308
2018-02-27T11:19:13.936Z,7300
2018-02-27T11:20:12.942Z,7912
2018-02-27T11:21:12.927Z,9132
2018-02-27T11:22:13.317Z,9832
2018-02-27T11:23:13.039Z,8844
2018-02-27T11:24:13.469Z,8316
2018-02-27T11:25:12.367Z,8400
2018-02-27T11:26:12.242Z,8556
2018-02-27T11:27:12.295Z,8764
2018-02-27T11:28:12.032Z,9508
2018-02-27T11:29:11.974Z,9940
2018-02-27T11:30:12.197Z,9196
2018-02-27T11:31:11.742Z,8104
2018-02-27T11:32:12.529Z,7692
2018-02-27T11:33:11.940Z,8032
2018-02-27T11:34:13.529Z,8428
2018-02-27T11:35:12.784Z,8088
2018-02-27T11:36:12.014Z,8332
2018-02-27T11:37:11.213Z,8500
2018-02-27T11:38:11.671Z,8368
2018-02-27T11:39:11.555Z,8812
2018-02-27T11:40:12.918Z,9224
2018-02-27T11:41:12.015Z,8180
2018-02-27T11:42:11.777Z,8320
2018-02-27T11:43:11.776Z,8384
2018-02-27T11:44:11.903Z,8388
2018-02-27T11:45:11.676Z,8344
2018-02-27T11:46:11.394Z,8276
2018-02-27T11:47:11.619Z,8764
2018-02-27T11:48:11.600Z,8992
2018-02-27T11:49:12.267Z,9036
2018-02-27T11:50:11.963Z,9272
2018-02-27T11:51:11.691Z,9512
2018-02-27T11:52:12.354Z,9464
2018-02-27T11:53:11.859Z,9136
2018-02-27T11:54:13.383Z,8584
2018-02-27T11:55:13.487Z,8408
2018-02-27T11:56:11.761Z,8704
2018-02-27T11:57:13.097Z,8928
2018-02-27T11:58:11.246Z,9380
2018-02-27T11:59:11.167Z,9572
2018-02-27T12:00:10.929Z,9696
2018-02-27T12:01:11.150Z,9744
2018-02-27T12:02:11.163Z,10144
2018-02-27T12:03:11.422Z,10908
2018-02-27T12:04:11.050Z,12948
2018-02-27T12:05:11.377Z,15012
2018-02-27T12:06:10.979Z,15928
2018-02-27T12:07:10.948Z,16780
2018-02-27T12:08:10.922Z,18976
2018-02-27T12:09:10.895Z,19168
2018-02-27T12:10:10.865Z,18624
2018-02-27T12:11:10.322Z,16844
2018-02-27T12:12:12.113Z,16500
2018-02-27T12:13:10.514Z,16268
2018-02-27T12:14:10.721Z,15916
2018-02-27T12:15:10.194Z,15476
2018-02-27T12:16:10.413Z,14712
2018-02-27T12:17:10.383Z,14592
2018-02-27T12:18:10.616Z,15152
2018-02-27T12:19:12.013Z,16568
2018-02-27T12:20:10.296Z,17388
2018-02-27T12:21:10.260Z,16752
2018-02-27T12:22:09.731Z,16268
2018-02-27T12:23:10.449Z,18656
2018-02-27T12:24:10.167Z,20544
2018-02-27T12:25:10.140Z,22208
2018-02-27T12:26:10.371Z,21984
2018-02-27T12:27:10.080Z,21760
2018-02-27T12:28:10.298Z,20064
2018-02-27T12:29:10.023Z,18656
2018-02-27T12:30:10.091Z,19456
2018-02-27T12:31:09.962Z,18912
2018-02-27T12:32:10.178Z,19040
2018-02-27T12:33:09.902Z,19392
2018-02-27T12:34:10.122Z,19584
2018-02-27T12:35:09.846Z,20096
2018-02-27T12:36:10.382Z,19584
2018-02-27T12:37:10.030Z,17664
2018-02-27T12:38:10.004Z,16180
2018-02-27T12:39:09.848Z,15140
2018-02-27T12:40:09.709Z,14516
2018-02-27T12:41:09.923Z,14272
2018-02-27T12:42:09.894Z,15380
2018-02-27T12:43:09.368Z,15780
2018-02-27T12:44:09.837Z,14796
2018-02-27T12:45:09.561Z,13580
2018-02-27T12:46:09.780Z,12532
2018-02-27T12:47:09.550Z,10980
2018-02-27T12:48:09.726Z,11244
2018-02-27T12:49:09.588Z,11788
2018-02-27T12:50:09.970Z,12612
2018-02-27T12:51:09.379Z,12100
2018-02-27T12:52:09.594Z,11228
2018-02-27T12:53:09.580Z,11296
2018-02-27T12:54:09.967Z,12104
2018-02-27T12:55:09.261Z,13344
2018-02-27T12:56:09.489Z,15368
2018-02-27T12:57:09.449Z,17068
2018-02-27T12:58:09.429Z,17184
2018-02-27T12:59:09.381Z,16824
2018-02-27T13:00:09.106Z,17192
2018-02-27T13:01:09.086Z,17176
2018-02-27T13:02:09.287Z,17040
2018-02-27T13:03:09.020Z,15896
2018-02-27T13:04:09.243Z,14280
2018-02-27T13:05:08.704Z,12916
2018-02-27T13:06:08.676Z,12056
2018-02-27T13:07:08.895Z,12212
2018-02-27T13:08:08.870Z,12828
2018-02-27T13:09:09.087Z,13316
2018-02-27T13:10:08.824Z,13700
2018-02-27T13:11:08.775Z,13716
2018-02-27T13:12:09.010Z,12832
2018-02-27T13:13:08.812Z,12184
2018-02-27T13:14:08.942Z,12328
2018-02-27T13:15:08.657Z,12408
2018-02-27T13:16:08.876Z,12544
2018-02-27T13:17:08.839Z,13376
2018-02-27T13:18:08.562Z,14476
2018-02-27T13:19:08.560Z,14960
2018-02-27T13:20:08.744Z,15276
2018-02-27T13:21:08.473Z,15664
2018-02-27T13:22:08.192Z,15380
2018-02-27T13:23:08.660Z,15868
2018-02-27T13:24:08.373Z,16600
2018-02-27T13:25:08.590Z,14776
2018-02-27T13:26:09.184Z,13028
2018-02-27T13:27:08.284Z,12908
2018-02-27T13:28:08.551Z,14148
2018-02-27T13:29:08.470Z,14752
2018-02-27T13:30:08.441Z,13296
2018-02-27T13:31:08.177Z,11272
2018-02-27T13:32:08.128Z,10368
2018-02-27T13:33:07.849Z,9136
2018-02-27T13:34:08.319Z,8564
2018-02-27T13:35:08.292Z,8724
2018-02-27T13:36:08.446Z,8924
2018-02-27T13:37:07.980Z,8516
2018-02-27T13:38:07.944Z,7948
2018-02-27T13:39:08.007Z,7848
2018-02-27T13:40:07.880Z,7856
2018-02-27T13:41:07.850Z,8032
2018-02-27T13:42:07.816Z,8312
2018-02-27T13:43:07.781Z,8592
2018-02-27T13:44:08.005Z,9148
2018-02-27T13:45:07.468Z,9068
2018-02-27T13:46:07.830Z,9216
2018-02-27T13:47:08.182Z,8944
2018-02-27T13:48:07.122Z,8732
2018-02-27T13:49:11.455Z,8936
2018-02-27T13:50:07.557Z,8792
2018-02-27T13:51:07.529Z,8540
2018-02-27T13:52:07.602Z,8316